Hovedside
METAR-TAF:

METAR-TAF

Lufthavner :

Andøya, Norge

Andøya lufthavn

breddegrad: 69-18N, lengdegrad: 016-09E, høyde over havet: 1 m

Gjeldene værobservasjon

Denne rapporten ble laget for 1 time og 9 minutter siden, klokken 09:50 UTC
Vind 11 kt fra Øst-nordøst
Temperatur 4°C
Luftfuktighet 65%
Trykk 1013 hPa
Sikt 10 km eller mer
ingen skyer under 1500 m og ingen bygeskyer

METAR: ENAN 270950Z 06011KT CAVOK 04/M02 Q1013

Tid: 12:59 (10:59 UTC)

Varsel

Varsel gyldig fra 27. klokken 06 UTC til 28. klokken 06 UTC
Vind 12 kt fra Nordøst
Sikt 10 km eller mer
Få skyer i en høyde av 3000 ft
Blir
fra 28. klokken 02 UTC til 28. klokken 06 UTC
Vind 5 kt fra Øst-sørøst

TAF: ENAN 2706/2806 05012KT 9999 FEW030 BECMG 2802/2806 12005KT

Værobservasjoner og værvarsel for over 4000 flyplasser (METAR- og TAF-rapporter).

Tilgjengelige stasjoner er representert av de røde og gule prikkene på kartet.

Hold musepekeren over prikken for å se navnet på stasjonen.

Klikk så for å se værobservasjoner og -varsler.

For å forandre kartet kan du klikke på den grønne knappen med svart kryss for å zoome inn, på den grønne knappen med strek for å zoome ut, eller på de grønne pilene for å se tilstøtende kart.


METAR-TAF: